Time;durP1;ratioP1;P1;durP2;ratioP2;P2;SDS_P1;SDS_P2;PMS_P1;PMS_P2;Temp;Humidity;BMP_temperature;BMP_pressure;BME280_temperature;BME280_humidity;BME280_pressure;Samples;Min_cycle;Max_cycle;Signal;HPM_P1;HPM_P2
2023/02/13 00:01:56;;;;;;;73.28;33.45;;;7.70;99.90;;;;;;5042617;28;20064;-68
2023/02/13 00:04:21;;;;;;;78.18;33.25;;;7.70;99.90;;;;;;5035171;28;20059;-68
2023/02/13 00:06:47;;;;;;;77.00;35.08;;;7.80;99.90;;;;;;5039547;28;20060;-66
2023/02/13 00:09:13;;;;;;;84.18;39.65;;;7.70;99.90;;;;;;5043202;28;20021;-66
2023/02/13 00:11:38;;;;;;;72.50;34.25;;;7.70;99.90;;;;;;5041543;28;20112;-65
2023/02/13 00:14:04;;;;;;;81.10;35.22;;;7.70;99.90;;;;;;5044358;28;20037;-65
2023/02/13 00:16:30;;;;;;;73.05;34.25;;;7.60;99.90;;;;;;5037493;28;20131;-64
2023/02/13 00:18:56;;;;;;;74.47;30.23;;;7.60;99.90;;;;;;5040436;28;20017;-66
2023/02/13 00:21:21;;;;;;;78.85;34.08;;;7.50;99.90;;;;;;5041199;28;20061;-66
2023/02/13 00:23:47;;;;;;;75.53;32.10;;;7.50;99.90;;;;;;5040400;28;20056;-66
2023/02/13 00:26:14;;;;;;;89.00;35.65;;;7.50;99.90;;;;;;5042546;28;20033;-65
2023/02/13 00:28:40;;;;;;;70.35;30.75;;;7.40;99.90;;;;;;5043519;28;20090;-65
2023/02/13 00:31:18;;;;;;;70.57;29.85;;;7.40;99.90;;;;;;5040717;28;20481;-65
2023/02/13 00:33:44;;;;;;;75.90;33.15;;;7.40;99.90;;;;;;5039946;28;20033;-65
2023/02/13 00:36:21;;;;;;;74.78;32.40;;;7.30;99.90;;;;;;5040375;28;20036;-65
2023/02/13 00:38:47;;;;;;;85.32;36.88;;;7.40;99.90;;;;;;5041586;28;20100;-65
2023/02/13 00:41:15;;;;;;;69.47;31.95;;;7.30;99.90;;;;;;5044804;28;20036;-65
2023/02/13 00:43:41;;;;;;;70.28;30.83;;;7.30;99.90;;;;;;5042978;28;20032;-66
2023/02/13 00:46:06;;;;;;;66.07;29.48;;;7.30;99.90;;;;;;5038519;28;20024;-65
2023/02/13 00:48:33;;;;;;;71.40;32.92;;;7.30;99.90;;;;;;5042604;28;20029;-66
2023/02/13 00:50:59;;;;;;;77.80;32.97;;;7.30;99.90;;;;;;5035084;28;20035;-66
2023/02/13 00:53:26;;;;;;;69.68;31.10;;;7.30;99.90;;;;;;5039817;28;20041;-66
2023/02/13 00:55:52;;;;;;;64.35;29.50;;;7.20;99.90;;;;;;5041372;28;20531;-65
2023/02/13 00:58:19;;;;;;;69.47;28.25;;;7.20;99.90;;;;;;5038719;28;20037;-65
2023/02/13 01:00:46;;;;;;;62.38;28.00;;;7.20;99.90;;;;;;5040889;28;20127;-65
2023/02/13 01:03:12;;;;;;;54.90;25.67;;;7.20;99.90;;;;;;5045754;28;20358;-66
2023/02/13 01:05:38;;;;;;;57.67;26.48;;;7.20;99.90;;;;;;5045138;28;20393;-66
2023/02/13 01:08:04;;;;;;;64.28;29.38;;;7.10;99.90;;;;;;5042143;28;20039;-65
2023/02/13 01:10:30;;;;;;;73.85;32.90;;;7.10;99.90;;;;;;5042429;28;20040;-67
2023/02/13 01:12:56;;;;;;;65.60;29.63;;;7.10;99.90;;;;;;5044010;28;20021;-65
2023/02/13 01:15:21;;;;;;;62.38;26.98;;;7.00;99.90;;;;;;5045978;28;20021;-65
2023/02/13 01:17:47;;;;;;;68.18;28.42;;;7.00;99.90;;;;;;5043627;28;20078;-65
2023/02/13 01:20:13;;;;;;;76.20;32.30;;;7.00;99.90;;;;;;5044111;28;20080;-65
2023/02/13 01:22:39;;;;;;;73.85;32.63;;;7.00;99.90;;;;;;5044568;28;20010;-66
2023/02/13 01:25:06;;;;;;;66.40;31.80;;;6.90;99.90;;;;;;5042635;28;20551;-65
2023/02/13 01:27:32;;;;;;;72.80;31.80;;;6.90;99.90;;;;;;5041988;28;20520;-66
2023/02/13 01:29:59;;;;;;;63.15;28.58;;;6.90;99.90;;;;;;5039998;28;20461;-66
2023/02/13 01:32:25;;;;;;;59.15;28.17;;;6.80;99.90;;;;;;5046990;28;20021;-66
2023/02/13 01:34:50;;;;;;;58.40;25.40;;;6.80;99.90;;;;;;5041481;28;20048;-65
2023/02/13 01:37:16;;;;;;;59.05;25.05;;;6.70;99.90;;;;;;5043560;28;20374;-65
2023/02/13 01:39:42;;;;;;;65.63;28.83;;;6.70;99.90;;;;;;5043492;28;20041;-65
2023/02/13 01:42:28;;;;;;;77.22;31.77;;;6.70;99.90;;;;;;5048606;28;20033;-65
2023/02/13 01:45:01;;;;;;;72.38;31.42;;;6.70;99.90;;;;;;5043902;28;20033;-65
2023/02/13 01:47:44;;;;;;;76.05;31.38;;;6.70;99.90;;;;;;5040125;28;20017;-65
2023/02/13 01:50:29;;;;;;;65.57;30.00;;;6.70;99.90;;;;;;5052395;28;20079;-65
2023/02/13 01:53:00;;;;;;;74.88;31.58;;;6.70;99.90;;;;;;5047889;28;20095;-65
2023/02/13 01:55:26;;;;;;;69.85;29.73;;;6.70;99.90;;;;;;5042653;28;20017;-65
2023/02/13 01:58:00;;;;;;;71.78;30.23;;;6.70;99.90;;;;;;5046016;28;20033;-65
2023/02/13 02:00:26;;;;;;;69.55;31.20;;;6.60;99.90;;;;;;5051486;28;20025;-65
2023/02/13 02:02:56;;;;;;;71.05;29.98;;;6.60;99.90;;;;;;5048362;28;20029;-65
2023/02/13 02:05:25;;;;;;;75.68;30.10;;;6.60;99.90;;;;;;5048574;28;20391;-65
2023/02/13 02:07:52;;;;;;;58.67;27.30;;;6.60;99.90;;;;;;5042824;28;20397;-65
2023/02/13 02:10:18;;;;;;;58.85;28.05;;;6.40;99.90;;;;;;5047281;28;20386;-65
2023/02/13 02:12:51;;;;;;;57.05;25.50;;;6.50;99.90;;;;;;5038573;28;20013;-65
2023/02/13 02:15:16;;;;;;;57.25;26.90;;;6.50;99.90;;;;;;5047608;28;20045;-65
2023/02/13 02:17:42;;;;;;;51.50;24.60;;;6.40;99.90;;;;;;5053411;28;20028;-65
2023/02/13 02:20:36;;;;;;;52.60;23.60;;;6.40;99.90;;;;;;5047388;28;20033;-65
2023/02/13 02:23:07;;;;;;;48.55;21.67;;;6.30;99.90;;;;;;5042402;28;20021;-65
2023/02/13 02:26:01;;;;;;;51.40;22.50;;;6.30;99.90;;;;;;5042522;28;20104;-65
2023/02/13 02:28:45;;;;;;;42.40;20.60;;;6.30;99.90;;;;;;5042614;28;20032;-65
2023/02/13 02:31:41;;;;;;;43.92;20.08;;;6.30;99.90;;;;;;5051281;28;20393;-64
2023/02/13 02:34:19;;;;;;;46.90;21.77;;;6.20;99.90;;;;;;5039969;28;20064;-65
2023/02/13 02:37:01;;;;;;;63.33;27.17;;;6.30;99.90;;;;;;5048791;28;20033;-65
2023/02/13 02:39:40;;;;;;;67.32;28.50;;;6.30;99.90;;;;;;5045892;28;20097;-65
2023/02/13 02:42:40;;;;;;;65.60;28.73;;;6.30;99.90;;;;;;5044798;28;20075;-65
2023/02/13 02:45:37;;;;;;;63.60;29.00;;;6.20;99.90;;;;;;5047205;28;20129;-64
2023/02/13 02:50:58;;;;;;;61.75;28.27;;;6.20;99.90;;;;;;5049997;28;20082;-65
2023/02/13 02:53:50;;;;;;;67.05;28.20;;;6.20;99.90;;;;;;5052104;28;20024;-65
2023/02/13 02:56:34;;;;;;;55.42;23.75;;;6.20;99.90;;;;;;5045080;28;20093;-66
2023/02/13 03:07:32;;;;;;;52.78;22.95;;;5.90;99.90;;;;;;5040182;28;20128;-65
2023/02/13 03:13:19;;;;;;;60.05;25.90;;;5.90;99.90;;;;;;5045895;28;20106;-65
2023/02/13 03:24:30;;;;;;;66.28;30.52;;;5.70;99.90;;;;;;5039305;28;20110;-65
2023/02/13 03:27:08;;;;;;;61.20;30.92;;;5.70;99.90;;;;;;5046664;28;20039;-65
2023/02/13 03:32:46;;;;;;;62.13;28.85;;;5.60;99.90;;;;;;5044538;28;20048;-65
2023/02/13 03:38:17;;;;;;;65.13;30.88;;;5.70;99.90;;;;;;5046427;28;20028;-65
2023/02/13 03:41:18;;;;;;;79.30;32.72;;;5.60;99.90;;;;;;5041578;28;20531;-65
2023/02/13 03:44:16;;;;;;;78.65;31.05;;;5.60;99.90;;;;;;5044924;28;20452;-65
2023/02/13 03:46:46;;;;;;;80.32;32.85;;;5.70;99.90;;;;;;5038821;28;20034;-65
2023/02/13 03:52:15;;;;;;;65.10;28.35;;;5.50;99.90;;;;;;5043594;28;20388;-64
2023/02/13 04:00:43;;;;;;;106.70;34.28;;;5.50;99.90;;;;;;5042759;28;20099;-64
2023/02/13 04:03:32;;;;;;;88.72;34.58;;;5.50;99.90;;;;;;5045593;28;20116;-65
2023/02/13 04:06:11;;;;;;;65.75;28.95;;;5.40;99.90;;;;;;5037772;28;20052;-65
2023/02/13 04:08:37;;;;;;;62.88;27.05;;;5.40;99.90;;;;;;5045536;28;20025;-66
2023/02/13 04:11:13;;;;;;;66.68;27.02;;;5.40;99.90;;;;;;5037139;28;20029;-65
2023/02/13 04:13:57;;;;;;;67.78;29.60;;;5.50;99.90;;;;;;5043104;28;20094;-65
2023/02/13 04:16:32;;;;;;;81.95;34.97;;;5.30;99.90;;;;;;5043015;28;20021;-65
2023/02/13 04:19:00;;;;;;;82.53;33.00;;;5.30;99.90;;;;;;5039616;28;20033;-64
2023/02/13 04:21:26;;;;;;;80.30;35.15;;;5.20;99.90;;;;;;5044511;28;20148;-65
2023/02/13 04:23:51;;;;;;;88.03;36.47;;;5.10;99.90;;;;;;5036646;28;20120;-65
2023/02/13 04:26:20;;;;;;;86.18;34.60;;;5.20;99.90;;;;;;5036728;28;20469;-65
2023/02/13 04:28:46;;;;;;;114.93;33.72;;;5.20;99.90;;;;;;5046767;28;20026;-65
2023/02/13 04:31:12;;;;;;;160.13;33.65;;;5.10;99.90;;;;;;5040863;28;20025;-64
2023/02/13 04:33:37;;;;;;;219.40;35.75;;;5.20;99.90;;;;;;5046329;28;20112;-65
2023/02/13 04:36:03;;;;;;;223.57;34.83;;;5.10;99.90;;;;;;5037415;28;20036;-64
2023/02/13 04:38:29;;;;;;;120.07;30.63;;;5.10;99.90;;;;;;5049396;28;20545;-66
2023/02/13 04:40:54;;;;;;;75.55;28.70;;;5.10;99.90;;;;;;5033198;28;20187;-65
2023/02/13 04:43:20;;;;;;;61.47;26.00;;;5.00;99.90;;;;;;5041542;28;20381;-65
2023/02/13 04:45:49;;;;;;;70.07;28.42;;;5.00;99.90;;;;;;5044973;28;20040;-65
2023/02/13 04:48:15;;;;;;;68.85;28.08;;;5.00;99.90;;;;;;5040637;28;20100;-65
2023/02/13 04:50:41;;;;;;;64.45;29.15;;;5.00;99.90;;;;;;5038652;28;20113;-65
2023/02/13 04:53:06;;;;;;;59.45;27.65;;;5.00;99.90;;;;;;5041277;28;20039;-64
2023/02/13 04:55:32;;;;;;;64.80;28.35;;;5.00;99.90;;;;;;5038701;28;20025;-65
2023/02/13 04:57:58;;;;;;;59.83;26.58;;;5.00;99.90;;;;;;5042444;28;20037;-65
2023/02/13 05:00:26;;;;;;;60.03;26.95;;;5.00;99.90;;;;;;5039796;28;20033;-64
2023/02/13 05:02:52;;;;;;;59.20;26.23;;;4.90;99.90;;;;;;5042681;28;20025;-65
2023/02/13 05:05:18;;;;;;;77.68;28.48;;;4.80;99.90;;;;;;5040162;28;20036;-65
2023/02/13 05:07:44;;;;;;;58.08;27.02;;;4.80;99.90;;;;;;5043985;28;20044;-65
2023/02/13 05:10:10;;;;;;;63.85;30.10;;;4.80;99.90;;;;;;5047280;28;20025;-64
2023/02/13 05:12:36;;;;;;;58.03;26.75;;;4.80;99.90;;;;;;5043424;28;20029;-65
2023/02/13 05:15:02;;;;;;;61.70;28.05;;;4.70;99.90;;;;;;5041227;28;20037;-65
2023/02/13 05:17:27;;;;;;;60.00;27.65;;;4.70;99.90;;;;;;5046832;28;20470;-65
2023/02/13 05:19:53;;;;;;;62.08;27.85;;;4.70;99.90;;;;;;5044088;28;20076;-64
2023/02/13 05:25:03;;;;;;;109.93;29.60;;;4.70;99.90;;;;;;5042226;28;20348;-65
2023/02/13 05:27:28;;;;;;;107.53;30.15;;;4.70;99.90;;;;;;5044568;28;20481;-65
2023/02/13 05:29:54;;;;;;;97.35;29.42;;;4.70;99.90;;;;;;5043717;28;20022;-64
2023/02/13 05:32:19;;;;;;;148.85;33.67;;;4.70;99.90;;;;;;5041505;28;20037;-65
2023/02/13 05:34:45;;;;;;;123.13;30.98;;;4.70;99.90;;;;;;5043038;28;20025;-64
2023/02/13 05:37:11;;;;;;;87.32;29.88;;;4.70;99.90;;;;;;5041246;28;20433;-65
2023/02/13 05:39:36;;;;;;;95.53;32.00;;;4.60;99.90;;;;;;5044691;28;20087;-65
2023/02/13 05:42:03;;;;;;;103.70;31.38;;;4.50;99.90;;;;;;5039323;28;20033;-65
2023/02/13 05:44:30;;;;;;;73.72;31.83;;;4.50;99.90;;;;;;5041173;28;20034;-64
2023/02/13 05:46:55;;;;;;;75.50;31.13;;;4.50;99.90;;;;;;5038391;28;20025;-64
2023/02/13 05:49:21;;;;;;;75.47;30.95;;;4.50;99.90;;;;;;5041725;28;20031;-65
2023/02/13 05:51:48;;;;;;;98.10;31.65;;;4.50;99.90;;;;;;5037710;28;20048;-64
2023/02/13 05:54:13;;;;;;;91.32;31.98;;;4.40;99.90;;;;;;5047720;28;20017;-65
2023/02/13 05:56:39;;;;;;;93.07;29.08;;;4.40;99.90;;;;;;5050939;28;20030;-64
2023/02/13 05:59:05;;;;;;;113.65;30.20;;;4.40;99.90;;;;;;5053397;28;20047;-65
2023/02/13 06:01:31;;;;;;;181.05;30.40;;;4.40;99.90;;;;;;5050219;28;20066;-64
2023/02/13 06:03:56;;;;;;;123.82;28.83;;;4.40;99.90;;;;;;5045526;28;20109;-65
2023/02/13 06:06:23;;;;;;;133.82;30.33;;;4.40;99.90;;;;;;5043777;28;20029;-65
2023/02/13 06:08:48;;;;;;;168.07;28.95;;;4.40;99.90;;;;;;5047028;28;20025;-64
2023/02/13 06:11:14;;;;;;;151.23;26.70;;;4.30;99.90;;;;;;5039783;28;20017;-64
2023/02/13 06:13:39;;;;;;;151.52;28.17;;;4.30;99.90;;;;;;5043433;28;20535;-64
2023/02/13 06:16:07;;;;;;;116.25;29.63;;;4.30;99.90;;;;;;5050065;28;20124;-65
2023/02/13 06:18:33;;;;;;;123.65;29.45;;;4.40;99.90;;;;;;5044142;28;20033;-64
2023/02/13 06:20:59;;;;;;;397.27;46.22;;;4.30;99.90;;;;;;5047231;28;20041;-65
2023/02/13 06:23:24;;;;;;;142.75;29.73;;;4.30;99.90;;;;;;5037046;28;20033;-65
2023/02/13 06:25:50;;;;;;;97.35;25.95;;;4.30;99.90;;;;;;5044686;28;20037;-65
2023/02/13 06:28:15;;;;;;;123.82;30.98;;;4.20;99.90;;;;;;5046743;28;20389;-64
2023/02/13 06:30:41;;;;;;;139.50;30.35;;;4.20;99.90;;;;;;5044897;28;20025;-64
2023/02/13 06:33:07;;;;;;;146.48;29.48;;;4.30;99.90;;;;;;5041451;28;20025;-64
2023/02/13 06:35:32;;;;;;;249.00;33.28;;;4.30;99.90;;;;;;5043915;28;20397;-64
2023/02/13 06:37:58;;;;;;;132.95;28.67;;;4.30;99.90;;;;;;5042626;28;20039;-64
2023/02/13 06:40:24;;;;;;;94.82;29.42;;;4.30;99.90;;;;;;5044799;28;20033;-65
2023/02/13 06:42:49;;;;;;;75.45;25.90;;;4.30;99.90;;;;;;5041173;28;20017;-65
2023/02/13 06:45:15;;;;;;;69.45;24.90;;;4.30;99.90;;;;;;5049414;28;20055;-64
2023/02/13 06:47:42;;;;;;;88.45;25.90;;;4.30;99.90;;;;;;5041187;28;20025;-64
2023/02/13 06:50:08;;;;;;;72.80;25.08;;;4.20;99.90;;;;;;5044162;28;20048;-65
2023/02/13 06:52:34;;;;;;;83.60;23.67;;;4.10;99.90;;;;;;5042105;28;20048;-64
2023/02/13 06:55:00;;;;;;;106.55;24.60;;;4.10;99.90;;;;;;5048638;28;20029;-64
2023/02/13 06:57:26;;;;;;;122.30;27.10;;;4.10;99.90;;;;;;5039727;28;20390;-64
2023/02/13 06:59:51;;;;;;;103.88;25.17;;;4.10;99.90;;;;;;5045426;28;20072;-65
2023/02/13 07:02:17;;;;;;;90.95;26.45;;;4.00;99.90;;;;;;5041441;28;20052;-64
2023/02/13 07:04:43;;;;;;;72.85;27.73;;;4.00;99.90;;;;;;5040960;28;20037;-64
2023/02/13 07:07:08;;;;;;;86.32;26.27;;;4.00;99.90;;;;;;5050806;28;20032;-64
2023/02/13 07:09:34;;;;;;;78.47;28.20;;;4.00;99.90;;;;;;5048215;28;20036;-64
2023/02/13 07:12:03;;;;;;;73.47;27.52;;;4.00;99.90;;;;;;5050661;28;20046;-65
2023/02/13 07:14:29;;;;;;;95.20;29.67;;;4.00;99.90;;;;;;5038539;28;20033;-64
2023/02/13 07:16:55;;;;;;;91.78;27.58;;;3.90;99.90;;;;;;5046961;28;20028;-64
2023/02/13 07:19:21;;;;;;;72.60;25.73;;;3.80;99.90;;;;;;5035926;28;20163;-64
2023/02/13 07:21:46;;;;;;;71.25;27.10;;;3.90;99.90;;;;;;5044510;28;20478;-64
2023/02/13 07:24:12;;;;;;;63.70;25.77;;;3.70;99.90;;;;;;5048471;28;20022;-64
2023/02/13 07:26:37;;;;;;;56.97;24.40;;;3.80;99.90;;;;;;5044202;28;20033;-65
2023/02/13 07:29:04;;;;;;;53.00;24.42;;;3.70;99.90;;;;;;5047288;28;20021;-65
2023/02/13 07:31:33;;;;;;;54.65;24.52;;;3.80;99.90;;;;;;5045440;28;20584;-65
2023/02/13 07:33:59;;;;;;;52.17;23.88;;;3.80;99.90;;;;;;5046386;28;20039;-65
2023/02/13 07:36:25;;;;;;;54.75;23.85;;;3.80;99.90;;;;;;5036122;28;20033;-64
2023/02/13 07:38:50;;;;;;;58.80;26.75;;;3.80;99.90;;;;;;5045412;28;20043;-64
2023/02/13 07:41:16;;;;;;;53.45;24.75;;;3.80;99.90;;;;;;5043917;28;20030;-65
2023/02/13 07:43:41;;;;;;;45.25;23.40;;;3.80;99.90;;;;;;5040981;28;20029;-65
2023/02/13 07:46:08;;;;;;;45.70;22.25;;;3.90;99.90;;;;;;5039762;28;20064;-65
2023/02/13 07:48:34;;;;;;;48.30;22.90;;;3.80;99.90;;;;;;5042514;28;20029;-65
2023/02/13 07:51:02;;;;;;;47.10;23.80;;;3.90;99.90;;;;;;5038253;28;20039;-65
2023/02/13 07:53:28;;;;;;;48.72;24.30;;;3.90;99.90;;;;;;5042491;28;20108;-64
2023/02/13 07:55:53;;;;;;;44.95;21.70;;;4.00;99.90;;;;;;5042969;28;20457;-64
2023/02/13 07:58:20;;;;;;;49.15;23.10;;;4.00;99.90;;;;;;5041232;28;20112;-65
2023/02/13 08:00:46;;;;;;;47.00;23.17;;;4.00;99.90;;;;;;5037472;28;20546;-65
2023/02/13 08:03:11;;;;;;;47.25;23.73;;;4.00;99.90;;;;;;5038263;28;20029;-65
2023/02/13 08:05:38;;;;;;;46.33;22.05;;;4.10;99.90;;;;;;5044603;28;20070;-64
2023/02/13 08:08:04;;;;;;;46.08;22.25;;;4.10;99.90;;;;;;5039230;28;20029;-64
2023/02/13 08:13:14;;;;;;;47.92;22.40;;;4.10;99.90;;;;;;5047310;28;20783;-64
2023/02/13 08:15:40;;;;;;;57.92;21.83;;;4.20;99.90;;;;;;5039476;28;20036;-65
2023/02/13 08:18:06;;;;;;;47.10;22.20;;;4.10;99.90;;;;;;5042400;28;20025;-64
2023/02/13 08:20:32;;;;;;;69.38;22.73;;;4.10;99.90;;;;;;5042034;28;20416;-65
2023/02/13 08:23:05;;;;;;;109.53;24.45;;;4.10;99.90;;;;;;5042840;28;20031;-65
2023/02/13 08:25:31;;;;;;;195.70;31.80;;;4.20;99.90;;;;;;5049606;28;20487;-66
2023/02/13 08:27:59;;;;;;;165.98;28.77;;;4.30;99.90;;;;;;5010261;28;20682;-66
2023/02/13 08:30:25;;;;;;;150.20;30.88;;;4.40;99.90;;;;;;5026490;28;20021;-65
2023/02/13 08:32:51;;;;;;;112.57;24.75;;;4.40;99.90;;;;;;5028950;28;20040;-68
2023/02/13 08:35:16;;;;;;;51.33;21.10;;;4.40;99.90;;;;;;5027085;28;20041;-68
2023/02/13 08:37:42;;;;;;;59.45;21.73;;;4.50;99.90;;;;;;5028924;28;20036;-66
2023/02/13 08:40:10;;;;;;;54.20;22.95;;;4.50;99.90;;;;;;5031258;28;20033;-68
2023/02/13 08:42:37;;;;;;;48.85;20.27;;;4.60;99.90;;;;;;5033302;28;20034;-66
2023/02/13 08:45:03;;;;;;;52.58;22.10;;;4.70;99.90;;;;;;5031236;28;20108;-71
2023/02/13 08:47:28;;;;;;;55.83;24.48;;;4.70;99.90;;;;;;5039430;28;20079;-71
2023/02/13 08:49:54;;;;;;;52.85;23.67;;;4.80;99.90;;;;;;5034012;28;20025;-70
2023/02/13 08:52:20;;;;;;;43.15;20.80;;;4.80;99.90;;;;;;5027552;28;20100;-69
2023/02/13 08:54:45;;;;;;;49.55;23.55;;;5.00;99.90;;;;;;5037207;28;20366;-65
2023/02/13 08:57:11;;;;;;;40.78;21.88;;;5.10;99.90;;;;;;5033338;28;20079;-66
2023/02/13 08:59:37;;;;;;;37.95;19.92;;;5.30;99.90;;;;;;5032894;28;20514;-65
2023/02/13 09:02:02;;;;;;;40.00;21.33;;;5.30;99.90;;;;;;5029027;28;20104;-66
2023/02/13 09:04:28;;;;;;;38.80;21.67;;;5.50;99.90;;;;;;5034157;28;20018;-69
2023/02/13 09:06:54;;;;;;;38.08;20.98;;;5.60;99.90;;;;;;5035768;28;20044;-70
2023/02/13 09:09:20;;;;;;;36.10;20.60;;;5.60;99.90;;;;;;5033154;28;20029;-67
2023/02/13 09:11:46;;;;;;;42.78;22.48;;;5.80;99.90;;;;;;5032039;28;20033;-66
2023/02/13 09:14:12;;;;;;;37.72;22.65;;;5.90;99.90;;;;;;5035281;28;20035;-70
2023/02/13 09:16:37;;;;;;;41.70;22.42;;;6.00;99.90;;;;;;5035068;28;20071;-68
2023/02/13 09:19:03;;;;;;;41.78;22.83;;;6.10;99.90;;;;;;5034736;28;20548;-71
2023/02/13 09:21:30;;;;;;;44.38;23.65;;;6.20;99.90;;;;;;5048169;28;20092;-69
2023/02/13 09:23:56;;;;;;;38.63;21.90;;;6.30;99.90;;;;;;5030873;28;20030;-69
2023/02/13 09:26:22;;;;;;;54.20;24.13;;;6.40;99.90;;;;;;5034754;28;20064;-71
2023/02/13 09:28:47;;;;;;;44.50;22.92;;;6.60;99.90;;;;;;5037796;28;20052;-67
2023/02/13 09:31:16;;;;;;;42.05;22.85;;;6.60;99.90;;;;;;5037316;28;20017;-70
2023/02/13 09:33:43;;;;;;;51.53;24.88;;;6.70;99.90;;;;;;5036135;28;20075;-67
2023/02/13 09:36:13;;;;;;;40.05;23.45;;;6.90;99.90;;;;;;5036910;28;20056;-66
2023/02/13 09:38:41;;;;;;;44.08;23.33;;;6.90;99.90;;;;;;5033879;28;20025;-70
2023/02/13 09:41:24;;;;;;;46.03;23.58;;;7.10;99.90;;;;;;5031953;28;20041;-68
2023/02/13 09:44:10;;;;;;;43.10;24.13;;;7.30;99.90;;;;;;5035141;28;20029;-71
2023/02/13 09:46:38;;;;;;;44.20;24.63;;;7.60;99.90;;;;;;5033663;28;20033;-68
2023/02/13 09:49:08;;;;;;;41.70;24.38;;;7.80;99.90;;;;;;5035446;28;20037;-67
2023/02/13 09:51:34;;;;;;;50.05;27.08;;;8.00;99.90;;;;;;5032947;28;20046;-66
2023/02/13 09:54:07;;;;;;;52.38;28.02;;;8.20;99.90;;;;;;5036784;28;20025;-67
2023/02/13 09:57:03;;;;;;;49.85;26.58;;;8.30;99.90;;;;;;5035823;28;20052;-70
2023/02/13 09:59:46;;;;;;;49.40;24.58;;;8.50;99.90;;;;;;5021823;28;20056;-70
2023/02/13 10:02:27;;;;;;;42.55;24.65;;;8.70;99.90;;;;;;5032686;28;20444;-70
2023/02/13 10:05:18;;;;;;;50.90;26.08;;;8.90;99.90;;;;;;5032139;28;20060;-69
2023/02/13 10:07:51;;;;;;;44.80;24.55;;;8.90;99.90;;;;;;5034231;28;20036;-70
2023/02/13 10:10:27;;;;;;;50.13;27.00;;;9.20;99.90;;;;;;5031701;28;20029;-67
2023/02/13 10:13:07;;;;;;;47.08;26.05;;;9.20;99.90;;;;;;5033234;28;20037;-67
2023/02/13 10:15:48;;;;;;;44.03;25.55;;;9.30;99.90;;;;;;5032489;28;20104;-68
2023/02/13 10:18:20;;;;;;;43.20;23.98;;;9.50;99.90;;;;;;5029928;28;20025;-70
2023/02/13 10:20:53;;;;;;;42.83;24.55;;;9.60;99.90;;;;;;5032371;28;20033;-70
2023/02/13 10:23:31;;;;;;;45.13;25.20;;;9.70;99.90;;;;;;5032393;28;20030;-70
2023/02/13 10:26:06;;;;;;;42.55;24.85;;;9.70;99.90;;;;;;5031929;28;20020;-70
2023/02/13 10:28:43;;;;;;;41.55;25.30;;;9.80;99.90;;;;;;5030409;28;20025;-71
2023/02/13 10:31:16;;;;;;;40.42;24.23;;;9.90;99.90;;;;;;5030470;28;20485;-70
2023/02/13 10:33:50;;;;;;;41.58;24.50;;;10.00;99.90;;;;;;5032899;28;20040;-68
2023/02/13 10:36:44;;;;;;;46.45;26.55;;;10.10;99.90;;;;;;5032187;28;20075;-69
2023/02/13 10:39:23;;;;;;;48.08;26.52;;;10.10;99.90;;;;;;5029665;28;20117;-69
2023/02/13 10:41:56;;;;;;;43.88;24.55;;;10.20;99.90;;;;;;5033385;28;20106;-70
2023/02/13 10:44:34;;;;;;;34.78;22.55;;;10.20;99.90;;;;;;5030642;28;20025;-70
2023/02/13 10:47:25;;;;;;;34.50;22.20;;;10.30;99.90;;;;;;5029387;28;20026;-69
2023/02/13 10:50:10;;;;;;;35.95;21.75;;;10.30;99.90;;;;;;5030668;28;20025;-69
2023/02/13 10:53:06;;;;;;;40.00;23.80;;;10.40;99.90;;;;;;5033952;28;20030;-70
2023/02/13 10:55:53;;;;;;;38.65;22.80;;;10.60;99.90;;;;;;5033107;28;20033;-70
2023/02/13 10:58:44;;;;;;;34.50;21.40;;;10.60;99.90;;;;;;5029986;28;20481;-70
2023/02/13 11:01:52;;;;;;;38.00;22.73;;;10.70;99.90;;;;;;5032000;28;20064;-69
2023/02/13 11:04:18;;;;;;;32.67;20.00;;;10.70;99.90;;;;;;5027483;28;20037;-68
2023/02/13 11:06:50;;;;;;;35.10;21.23;;;10.80;99.90;;;;;;5031945;28;20041;-68
2023/02/13 11:09:16;;;;;;;33.88;19.00;;;11.00;99.90;;;;;;5031946;28;20095;-68
2023/02/13 11:11:44;;;;;;;31.13;19.20;;;10.90;99.90;;;;;;5031750;28;20485;-68
2023/02/13 11:14:12;;;;;;;30.83;16.80;;;11.10;99.90;;;;;;5027984;28;20021;-68
2023/02/13 11:16:53;;;;;;;27.90;17.48;;;11.10;99.90;;;;;;5031208;28;20064;-68
2023/02/13 11:19:36;;;;;;;31.05;17.33;;;11.20;99.90;;;;;;5032821;28;20025;-68
2023/02/13 11:22:10;;;;;;;28.42;18.98;;;11.30;99.90;;;;;;5031737;28;20064;-68
2023/02/13 11:24:36;;;;;;;27.75;17.98;;;11.30;99.90;;;;;;5031042;28;20032;-68
2023/02/13 11:27:07;;;;;;;28.98;18.98;;;11.40;99.90;;;;;;5030804;28;20025;-68
2023/02/13 11:29:35;;;;;;;28.30;17.27;;;11.40;99.90;;;;;;5033615;28;20091;-69
2023/02/13 11:32:13;;;;;;;29.58;17.65;;;11.40;99.90;;;;;;5029526;28;20025;-68
2023/02/13 11:34:38;;;;;;;25.38;16.40;;;11.50;99.90;;;;;;5030380;28;20041;-69
2023/02/13 11:37:26;;;;;;;25.30;15.27;;;11.50;99.90;;;;;;5029436;28;20029;-68
2023/02/13 11:39:55;;;;;;;27.83;16.02;;;11.50;99.90;;;;;;5032982;28;20079;-68
2023/02/13 11:42:29;;;;;;;26.90;16.65;;;11.60;99.90;;;;;;5030327;28;20196;-69
2023/02/13 11:45:04;;;;;;;24.70;16.00;;;11.70;99.90;;;;;;5029054;28;20107;-68
2023/02/13 11:47:42;;;;;;;30.17;17.13;;;11.70;99.90;;;;;;5028457;28;20025;-68
2023/02/13 11:50:30;;;;;;;24.42;15.30;;;11.70;99.90;;;;;;5028282;28;20048;-70
2023/02/13 11:53:08;;;;;;;20.77;12.10;;;11.70;99.90;;;;;;5032569;28;20024;-68
2023/02/13 11:55:39;;;;;;;20.02;13.07;;;11.70;99.90;;;;;;5032393;28;20030;-68
2023/02/13 11:58:10;;;;;;;21.73;13.75;;;11.80;99.90;;;;;;5027366;28;20044;-69
2023/02/13 12:00:40;;;;;;;20.53;13.40;;;11.80;99.90;;;;;;5031453;28;20424;-68
2023/02/13 12:03:32;;;;;;;22.08;11.43;;;11.90;99.90;;;;;;5033083;28;20324;-69
2023/02/13 12:06:01;;;;;;;19.10;12.93;;;11.90;99.90;;;;;;5027820;28;20045;-69
2023/02/13 12:08:28;;;;;;;19.00;12.25;;;11.90;99.90;;;;;;5030907;28;20026;-68
2023/02/13 12:10:56;;;;;;;22.45;13.75;;;11.90;99.90;;;;;;5029645;28;20082;-69
2023/02/13 12:13:37;;;;;;;20.35;13.10;;;11.90;99.90;;;;;;5028359;28;20022;-68
2023/02/13 12:16:16;;;;;;;23.50;13.77;;;12.00;99.90;;;;;;5029526;28;20320;-69
2023/02/13 12:18:48;;;;;;;21.27;12.93;;;12.10;99.90;;;;;;5028205;28;20021;-69
2023/02/13 12:21:45;;;;;;;21.15;13.45;;;12.20;99.90;;;;;;5032348;28;20112;-68
2023/02/13 12:24:26;;;;;;;18.58;11.68;;;12.10;99.90;;;;;;5026974;28;20041;-69
2023/02/13 12:27:28;;;;;;;19.15;11.30;;;12.20;99.90;;;;;;5030338;28;20025;-69
2023/02/13 12:29:59;;;;;;;18.17;12.37;;;12.30;99.90;;;;;;5029871;28;20033;-68
2023/02/13 12:32:34;;;;;;;19.95;11.70;;;12.20;99.90;;;;;;5028848;28;20022;-69
2023/02/13 12:35:19;;;;;;;20.00;13.32;;;12.20;99.90;;;;;;5029961;28;20033;-68
2023/02/13 12:38:05;;;;;;;16.63;11.35;;;12.20;99.90;;;;;;5032481;28;20211;-68
2023/02/13 12:41:05;;;;;;;19.60;12.18;;;12.20;99.90;;;;;;5031209;28;20050;-68
2023/02/13 12:44:04;;;;;;;16.48;10.93;;;12.20;99.90;;;;;;5022356;28;20497;-68
2023/02/13 12:46:58;;;;;;;19.38;10.98;;;12.20;99.90;;;;;;5028091;28;20084;-68
2023/02/13 12:49:35;;;;;;;14.40;8.98;;;12.30;99.90;;;;;;5013986;28;20046;-68
2023/02/13 12:52:41;;;;;;;25.20;9.70;;;12.30;99.90;;;;;;5029758;28;20440;-68
2023/02/13 12:55:35;;;;;;;15.32;9.55;;;12.30;99.90;;;;;;5030716;28;20915;-67
2023/02/13 12:58:43;;;;;;;16.42;10.43;;;12.40;99.90;;;;;;5030181;28;20067;-68
2023/02/13 13:01:24;;;;;;;12.60;8.35;;;12.30;99.90;;;;;;5038293;28;20068;-68
2023/02/13 13:04:11;;;;;;;15.60;10.50;;;12.30;99.90;;;;;;5034999;28;20029;-68
2023/02/13 13:07:14;;;;;;;17.88;10.27;;;12.20;99.90;;;;;;5031898;28;20029;-68
2023/02/13 13:09:51;;;;;;;;;;;12.20;99.90;;;;;;5033657;28;20115;-69
2023/02/13 13:12:28;;;;;;;17.10;10.10;;;12.20;99.90;;;;;;5034423;28;19909;-69
2023/02/13 13:15:06;;;;;;;16.58;11.07;;;12.20;99.90;;;;;;5032655;28;20107;-68
2023/02/13 13:17:32;;;;;;;14.23;9.93;;;12.30;99.90;;;;;;5033306;28;20075;-69
2023/02/13 13:20:33;;;;;;;18.10;11.15;;;12.20;99.90;;;;;;5035870;28;20053;-69
2023/02/13 13:23:14;;;;;;;17.48;11.68;;;12.30;99.90;;;;;;5033507;28;20556;-69
2023/02/13 13:25:54;;;;;;;15.18;9.80;;;12.30;99.90;;;;;;5035369;28;20017;-69
2023/02/13 13:28:24;;;;;;;17.73;12.23;;;12.40;99.90;;;;;;5032770;28;20437;-68
2023/02/13 13:30:52;;;;;;;18.38;11.75;;;12.30;99.90;;;;;;5035831;28;20037;-68
2023/02/13 13:33:23;;;;;;;18.23;11.85;;;12.20;99.90;;;;;;5032230;28;20029;-69
2023/02/13 13:36:05;;;;;;;16.73;11.32;;;12.20;99.90;;;;;;5030583;28;20034;-69
2023/02/13 13:39:09;;;;;;;17.05;10.48;;;12.30;99.90;;;;;;5031543;28;20029;-69
2023/02/13 13:41:53;;;;;;;16.88;10.38;;;12.20;99.90;;;;;;5023497;28;20438;-68